YUL weather

Montreal / Pierre Elliott Trudeau International Airport
Montréal, Quebec, Canada

Public forecast

Using degrees Celsius for public forecast. Weather courtesy of forecast.io.

METAR (pilot weather report)

Retrieved 2018/08/16 04:00 UTC (1 hour ago):

CYUL 160400Z 29005KT 15SM SCT050 BKN077 BKN230 21/15 A2993 RMK SC3AC2CI2 SLP136 DENSITY ALT 900FT

TAF (pilot weather forecast)

Retrieved 2018/08/16 03:42 UTC (1 hour ago):

TAF CYUL 160238Z 1603/1624 32007KT P6SM BKN070 FM160900 03007KT P6SM FEW050 BECMG 1616/1618 27007KT BECMG 1620/1622 19007KT RMK NXT FCST BY 160600Z